Terminal Aerodrome Forecast
Issued by NWS

Home | Current Version | Previous Version | Text Only | Print | Product List | Glossary On
Versions: 1 2 3 4 5 6 7 8 9 10 11 12 13 14
000
FTUS44 KCRP 012300
TAFLRD
TAF
KLRD 012338Z 0200/0224 06008KT P6SM VCTS BKN040CB OVC150
     FM020500 10008KT P6SM OVC050
     FM021200 05005KT P6SM BKN040
     FM021600 06008KT P6SM VCTS BKN040CB=

USA.gov is the U.S. government's official web portal to all federal, state and local government web resources and services.